sensor_id;sensor_type;location;lat;lon;timestamp;pressure;altitude;pressure_sealevel;temperature;humidity
54816;BME280;40715;55.752;37.884;2023-04-28T00:01:40;98496.47;;;32.30;19.63
54816;BME280;40715;55.752;37.884;2023-04-28T00:04:07;98489.31;;;32.29;19.89
54816;BME280;40715;55.752;37.884;2023-04-28T00:06:35;98492.69;;;32.31;19.83
54816;BME280;40715;55.752;37.884;2023-04-28T00:09:03;98492.03;;;32.29;19.75
54816;BME280;40715;55.752;37.884;2023-04-28T00:11:30;98491.00;;;32.30;19.43
54816;BME280;40715;55.752;37.884;2023-04-28T00:13:57;98484.06;;;32.28;19.47
54816;BME280;40715;55.752;37.884;2023-04-28T00:16:24;98491.00;;;32.30;19.78
54816;BME280;40715;55.752;37.884;2023-04-28T00:18:51;98491.22;;;32.29;19.93
54816;BME280;40715;55.752;37.884;2023-04-28T00:21:18;98478.19;;;32.24;19.71
54816;BME280;40715;55.752;37.884;2023-04-28T00:23:45;98491.22;;;32.29;20.03
54816;BME280;40715;55.752;37.884;2023-04-28T00:26:12;98490.19;;;32.30;19.65
54816;BME280;40715;55.752;37.884;2023-04-28T00:28:39;98472.34;;;32.27;19.76
54816;BME280;40715;55.752;37.884;2023-04-28T00:31:13;98474.44;;;32.32;19.98
54816;BME280;40715;55.752;37.884;2023-04-28T00:33:42;98473.59;;;32.25;19.49
54816;BME280;40715;55.752;37.884;2023-04-28T00:36:10;98476.31;;;32.25;19.72
54816;BME280;40715;55.752;37.884;2023-04-28T00:38:37;98469.56;;;32.21;19.92
54816;BME280;40715;55.752;37.884;2023-04-28T00:41:04;98485.13;;;32.27;19.67
54816;BME280;40715;55.752;37.884;2023-04-28T00:43:48;98482.41;;;32.33;19.57
54816;BME280;40715;55.752;37.884;2023-04-28T00:46:25;98477.84;;;32.34;19.87
54816;BME280;40715;55.752;37.884;2023-04-28T00:48:53;98484.06;;;32.28;19.60
54816;BME280;40715;55.752;37.884;2023-04-28T00:51:21;98478.00;;;32.26;19.61
54816;BME280;40715;55.752;37.884;2023-04-28T00:53:49;98479.03;;;32.25;19.64
54816;BME280;40715;55.752;37.884;2023-04-28T00:56:17;98474.25;;;32.27;19.48
54816;BME280;40715;55.752;37.884;2023-04-28T00:58:44;98471.06;;;32.23;19.85
54816;BME280;40715;55.752;37.884;2023-04-28T01:01:11;98476.09;;;32.26;19.58
54816;BME280;40715;55.752;37.884;2023-04-28T01:03:41;98479.44;;;32.22;20.10
54816;BME280;40715;55.752;37.884;2023-04-28T01:06:09;98472.09;;;32.22;19.85
54816;BME280;40715;55.752;37.884;2023-04-28T01:08:37;98477.34;;;32.24;19.52
54816;BME280;40715;55.752;37.884;2023-04-28T01:11:05;98473.78;;;32.23;19.73
54816;BME280;40715;55.752;37.884;2023-04-28T01:13:32;98473.59;;;32.25;20.02
54816;BME280;40715;55.752;37.884;2023-04-28T01:15:59;98473.78;;;32.23;19.98
54816;BME280;40715;55.752;37.884;2023-04-28T01:18:27;98466.66;;;32.22;19.98
54816;BME280;40715;55.752;37.884;2023-04-28T01:20:54;98479.25;;;32.23;19.59
54816;BME280;40715;55.752;37.884;2023-04-28T01:23:21;98483.00;;;32.22;19.47
54816;BME280;40715;55.752;37.884;2023-04-28T01:25:48;98491.81;;;32.24;19.61
54816;BME280;40715;55.752;37.884;2023-04-28T01:28:15;98492.25;;;32.21;19.91
54816;BME280;40715;55.752;37.884;2023-04-28T01:30:42;98493.06;;;32.22;19.86
54816;BME280;40715;55.752;37.884;2023-04-28T01:33:09;98481.53;;;32.20;19.81
54816;BME280;40715;55.752;37.884;2023-04-28T01:35:36;98480.47;;;32.21;19.49
54816;BME280;40715;55.752;37.884;2023-04-28T01:38:04;98489.50;;;32.21;19.46
54816;BME280;40715;55.752;37.884;2023-04-28T01:40:31;98485.94;;;32.21;19.56
54816;BME280;40715;55.752;37.884;2023-04-28T01:42:58;98484.28;;;32.20;19.53
54816;BME280;40715;55.752;37.884;2023-04-28T01:45:26;98489.25;;;32.16;19.66
54816;BME280;40715;55.752;37.884;2023-04-28T01:47:53;98482.78;;;32.17;19.56
54816;BME280;40715;55.752;37.884;2023-04-28T01:50:20;98470.53;;;32.06;19.60
54816;BME280;40715;55.752;37.884;2023-04-28T01:52:47;98485.72;;;32.15;19.76
54816;BME280;40715;55.752;37.884;2023-04-28T01:55:14;98490.28;;;32.15;19.71
54816;BME280;40715;55.752;37.884;2023-04-28T01:57:41;98492.19;;;32.14;19.95
54816;BME280;40715;55.752;37.884;2023-04-28T02:00:08;98491.91;;;32.09;20.12
54816;BME280;40715;55.752;37.884;2023-04-28T02:02:35;98490.06;;;32.10;19.83
54816;BME280;40715;55.752;37.884;2023-04-28T02:05:02;98487.53;;;32.08;20.36
54816;BME280;40715;55.752;37.884;2023-04-28T02:07:30;98488.56;;;32.07;19.98
54816;BME280;40715;55.752;37.884;2023-04-28T02:09:57;98489.38;;;32.08;20.00
54816;BME280;40715;55.752;37.884;2023-04-28T02:12:24;98478.69;;;32.06;20.41
54816;BME280;40715;55.752;37.884;2023-04-28T02:14:51;98477.00;;;32.05;20.36
54816;BME280;40715;55.752;37.884;2023-04-28T02:17:18;98463.38;;;32.05;19.97
54816;BME280;40715;55.752;37.884;2023-04-28T02:19:46;98468.84;;;32.05;19.83
54816;BME280;40715;55.752;37.884;2023-04-28T02:22:13;98470.72;;;32.05;20.17
54816;BME280;40715;55.752;37.884;2023-04-28T02:24:39;98479.09;;;32.03;19.72
54816;BME280;40715;55.752;37.884;2023-04-28T02:27:07;98485.19;;;32.05;19.79
54816;BME280;40715;55.752;37.884;2023-04-28T02:29:34;98482.84;;;32.02;20.05
54816;BME280;40715;55.752;37.884;2023-04-28T02:32:01;98489.16;;;32.03;19.75
54816;BME280;40715;55.752;37.884;2023-04-28T02:34:28;98485.59;;;32.02;20.12
54816;BME280;40715;55.752;37.884;2023-04-28T02:36:55;98487.69;;;32.00;20.06
54816;BME280;40715;55.752;37.884;2023-04-28T02:39:22;98489.38;;;32.01;20.09
54816;BME280;40715;55.752;37.884;2023-04-28T02:41:51;98484.97;;;32.00;20.16
54816;BME280;40715;55.752;37.884;2023-04-28T02:44:19;98482.44;;;31.98;19.83
54816;BME280;40715;55.752;37.884;2023-04-28T02:46:46;98487.88;;;31.98;19.99
54816;BME280;40715;55.752;37.884;2023-04-28T02:49:14;98487.88;;;31.98;19.86
54816;BME280;40715;55.752;37.884;2023-04-28T02:51:41;98496.06;;;31.98;19.97
54816;BME280;40715;55.752;37.884;2023-04-28T02:54:08;98506.94;;;31.98;19.86
54816;BME280;40715;55.752;37.884;2023-04-28T02:56:35;98505.25;;;31.97;20.15
54816;BME280;40715;55.752;37.884;2023-04-28T02:59:03;98493.53;;;31.97;20.25
54816;BME280;40715;55.752;37.884;2023-04-28T03:01:30;98496.47;;;31.95;20.48
54816;BME280;40715;55.752;37.884;2023-04-28T03:03:57;98495.41;;;31.96;20.55
54816;BME280;40715;55.752;37.884;2023-04-28T03:06:24;98494.78;;;31.94;20.38
54816;BME280;40715;55.752;37.884;2023-04-28T03:08:51;98496.47;;;31.95;20.15
54816;BME280;40715;55.752;37.884;2023-04-28T03:11:18;98499.34;;;31.94;20.42
54816;BME280;40715;55.752;37.884;2023-04-28T03:13:45;98502.09;;;31.94;20.56
54816;BME280;40715;55.752;37.884;2023-04-28T03:16:12;98499.56;;;31.92;20.24
54816;BME280;40715;55.752;37.884;2023-04-28T03:18:39;98479.63;;;31.85;20.46
54816;BME280;40715;55.752;37.884;2023-04-28T03:21:06;98497.25;;;31.89;20.13
54816;BME280;40715;55.752;37.884;2023-04-28T03:23:33;98495.13;;;31.84;20.60
54816;BME280;40715;55.752;37.884;2023-04-28T03:26:00;98503.56;;;31.90;20.49
54816;BME280;40715;55.752;37.884;2023-04-28T03:28:27;98509.00;;;31.90;20.62
54816;BME280;40715;55.752;37.884;2023-04-28T03:30:55;98513.78;;;31.88;20.63
54816;BME280;40715;55.752;37.884;2023-04-28T03:33:22;98520.06;;;31.88;20.66
54816;BME280;40715;55.752;37.884;2023-04-28T03:35:49;98512.09;;;31.87;20.48
54816;BME280;40715;55.752;37.884;2023-04-28T03:38:16;98509.13;;;31.81;20.40
54816;BME280;40715;55.752;37.884;2023-04-28T03:40:45;98521.13;;;31.87;20.56
54816;BME280;40715;55.752;37.884;2023-04-28T03:43:12;98513.97;;;31.86;20.70
54816;BME280;40715;55.752;37.884;2023-04-28T03:45:40;98509.97;;;31.82;20.72
54816;BME280;40715;55.752;37.884;2023-04-28T03:48:07;98511.41;;;31.78;20.81
54816;BME280;40715;55.752;37.884;2023-04-28T03:50:34;98516.91;;;31.84;20.92
54816;BME280;40715;55.752;37.884;2023-04-28T03:53:01;98522.34;;;31.84;20.91
54816;BME280;40715;55.752;37.884;2023-04-28T03:55:28;98522.16;;;31.86;21.04
54816;BME280;40715;55.752;37.884;2023-04-28T03:57:55;98517.16;;;31.90;21.07
54816;BME280;40715;55.752;37.884;2023-04-28T04:00:22;98521.16;;;31.94;21.15
54816;BME280;40715;55.752;37.884;2023-04-28T04:02:49;98510.25;;;31.94;20.93
54816;BME280;40715;55.752;37.884;2023-04-28T04:05:16;98516.16;;;31.97;21.12
54816;BME280;40715;55.752;37.884;2023-04-28T04:07:43;98530.03;;;32.03;20.84
54816;BME280;40715;55.752;37.884;2023-04-28T04:10:10;98527.94;;;32.05;21.22
54816;BME280;40715;55.752;37.884;2023-04-28T04:12:37;98518.31;;;32.09;21.28
54816;BME280;40715;55.752;37.884;2023-04-28T04:15:05;98520.38;;;32.07;21.37
54816;BME280;40715;55.752;37.884;2023-04-28T04:17:32;98516.84;;;32.06;21.41
54816;BME280;40715;55.752;37.884;2023-04-28T04:19:59;98516.44;;;32.09;21.32
54816;BME280;40715;55.752;37.884;2023-04-28T04:22:27;98526.91;;;32.12;21.67
54816;BME280;40715;55.752;37.884;2023-04-28T04:24:54;98524.19;;;32.12;21.54
54816;BME280;40715;55.752;37.884;2023-04-28T04:27:21;98530.75;;;32.18;21.71
54816;BME280;40715;55.752;37.884;2023-04-28T04:29:48;98529.53;;;32.21;21.77
54816;BME280;40715;55.752;37.884;2023-04-28T04:32:15;98520.06;;;32.16;21.62
54816;BME280;40715;55.752;37.884;2023-04-28T04:34:42;98527.25;;;32.24;21.36
54816;BME280;40715;55.752;37.884;2023-04-28T04:37:11;98524.72;;;32.23;21.84
54816;BME280;40715;55.752;37.884;2023-04-28T04:39:39;98535.84;;;32.28;21.94
54816;BME280;40715;55.752;37.884;2023-04-28T04:42:06;98532.91;;;32.29;22.14
54816;BME280;40715;55.752;37.884;2023-04-28T04:44:48;98535.44;;;32.31;22.12
54816;BME280;40715;55.752;37.884;2023-04-28T04:47:15;98539.03;;;32.31;22.22
54816;BME280;40715;55.752;37.884;2023-04-28T04:49:42;98538.16;;;32.31;22.56
54816;BME280;40715;55.752;37.884;2023-04-28T04:52:09;98549.31;;;32.36;22.30
54816;BME280;40715;55.752;37.884;2023-04-28T04:54:36;98543.47;;;32.39;22.82
54816;BME280;40715;55.752;37.884;2023-04-28T04:57:04;98550.81;;;32.39;22.81
54816;BME280;40715;55.752;37.884;2023-04-28T04:59:31;98551.44;;;32.41;23.33
54816;BME280;40715;55.752;37.884;2023-04-28T05:02:01;98554.81;;;32.43;22.95
54816;BME280;40715;55.752;37.884;2023-04-28T05:04:28;98555.22;;;32.46;23.68
54816;BME280;40715;55.752;37.884;2023-04-28T05:06:55;98563.41;;;32.46;23.74
54816;BME280;40715;55.752;37.884;2023-04-28T05:09:22;98559.44;;;32.49;23.66
54816;BME280;40715;55.752;37.884;2023-04-28T05:11:49;98550.03;;;32.51;23.38
54816;BME280;40715;55.752;37.884;2023-04-28T05:14:16;98560.09;;;32.51;23.25
54816;BME280;40715;55.752;37.884;2023-04-28T05:16:44;98561.75;;;32.52;23.64
54816;BME280;40715;55.752;37.884;2023-04-28T05:19:11;98558.00;;;32.53;23.22
54816;BME280;40715;55.752;37.884;2023-04-28T05:21:39;98549.81;;;32.53;23.68
54816;BME280;40715;55.752;37.884;2023-04-28T05:24:06;98571.22;;;32.56;23.67
54816;BME280;40715;55.752;37.884;2023-04-28T05:26:34;98573.31;;;32.54;23.78
54816;BME280;40715;55.752;37.884;2023-04-28T05:29:02;98569.53;;;32.55;23.55
54816;BME280;40715;55.752;37.884;2023-04-28T05:31:28;98577.34;;;32.58;23.44
54816;BME280;40715;55.752;37.884;2023-04-28T05:33:56;98576.28;;;32.59;23.28
54816;BME280;40715;55.752;37.884;2023-04-28T05:36:23;98581.53;;;32.61;23.14
54816;BME280;40715;55.752;37.884;2023-04-28T05:38:50;98577.75;;;32.62;23.42
54816;BME280;40715;55.752;37.884;2023-04-28T05:41:17;98576.28;;;32.59;23.46
54816;BME280;40715;55.752;37.884;2023-04-28T05:43:44;98584.06;;;32.62;23.34
54816;BME280;40715;55.752;37.884;2023-04-28T05:46:13;98582.19;;;32.63;23.35
54816;BME280;40715;55.752;37.884;2023-04-28T05:48:54;98579.25;;;32.64;23.04
54816;BME280;40715;55.752;37.884;2023-04-28T05:51:22;98583.22;;;32.62;23.46
54816;BME280;40715;55.752;37.884;2023-04-28T05:53:49;98581.13;;;32.64;23.07
54816;BME280;40715;55.752;37.884;2023-04-28T05:56:16;98585.09;;;32.61;23.17
54816;BME280;40715;55.752;37.884;2023-04-28T05:58:45;98587.84;;;32.61;23.48
54816;BME280;40715;55.752;37.884;2023-04-28T06:01:15;98580.47;;;32.62;23.33
54816;BME280;40715;55.752;37.884;2023-04-28T06:03:43;98571.06;;;32.64;23.07
54816;BME280;40715;55.752;37.884;2023-04-28T06:06:11;98563.09;;;32.63;23.06
54816;BME280;40715;55.752;37.884;2023-04-28T06:08:38;98569.81;;;32.67;23.20
54816;BME280;40715;55.752;37.884;2023-04-28T06:11:05;98567.09;;;32.67;23.52
54816;BME280;40715;55.752;37.884;2023-04-28T06:13:33;98575.09;;;32.68;23.29
54816;BME280;40715;55.752;37.884;2023-04-28T06:16:00;98568.97;;;32.66;23.53
54816;BME280;40715;55.752;37.884;2023-04-28T06:18:28;98564.38;;;32.67;23.59
54816;BME280;40715;55.752;37.884;2023-04-28T06:20:58;98568.63;;;32.69;23.25
54816;BME280;40715;55.752;37.884;2023-04-28T06:23:25;98556.19;;;32.67;23.29
54816;BME280;40715;55.752;37.884;2023-04-28T06:25:52;98559.56;;;32.69;23.50
54816;BME280;40715;55.752;37.884;2023-04-28T06:28:19;98558.91;;;32.67;23.17
54816;BME280;40715;55.752;37.884;2023-04-28T06:30:46;98582.03;;;32.71;23.13
54816;BME280;40715;55.752;37.884;2023-04-28T06:33:13;98571.97;;;32.72;23.19
54816;BME280;40715;55.752;37.884;2023-04-28T06:35:40;98579.94;;;32.73;23.29
54816;BME280;40715;55.752;37.884;2023-04-28T06:38:07;98580.78;;;32.74;23.43
54816;BME280;40715;55.752;37.884;2023-04-28T06:40:35;98580.59;;;32.75;22.99
54816;BME280;40715;55.752;37.884;2023-04-28T06:43:02;98580.38;;;32.77;23.47
54816;BME280;40715;55.752;37.884;2023-04-28T06:45:31;98585.84;;;32.77;23.33
54816;BME280;40715;55.752;37.884;2023-04-28T06:47:58;98577.66;;;32.77;23.35
54816;BME280;40715;55.752;37.884;2023-04-28T06:50:25;98577.88;;;32.75;23.44
54816;BME280;40715;55.752;37.884;2023-04-28T06:52:52;98585.84;;;32.77;23.43
54816;BME280;40715;55.752;37.884;2023-04-28T06:55:19;98576.59;;;32.78;23.30
54816;BME280;40715;55.752;37.884;2023-04-28T06:57:46;98592.13;;;32.77;23.37
54816;BME280;40715;55.752;37.884;2023-04-28T07:00:14;98577.66;;;32.77;22.78
54816;BME280;40715;55.752;37.884;2023-04-28T07:02:41;98582.03;;;32.78;23.29
54816;BME280;40715;55.752;37.884;2023-04-28T07:05:08;98584.97;;;32.76;23.41
54816;BME280;40715;55.752;37.884;2023-04-28T07:07:36;98586.88;;;32.76;22.85
54816;BME280;40715;55.752;37.884;2023-04-28T07:10:05;98592.34;;;32.76;23.20
54816;BME280;40715;55.752;37.884;2023-04-28T07:12:33;98592.13;;;32.77;23.37
54816;BME280;40715;55.752;37.884;2023-04-28T07:15:00;98591.28;;;32.77;23.24
54816;BME280;40715;55.752;37.884;2023-04-28T07:17:30;98588.38;;;32.78;22.89
54816;BME280;40715;55.752;37.884;2023-04-28T07:19:57;98603.25;;;32.76;23.09
54816;BME280;40715;55.752;37.884;2023-04-28T07:22:24;98588.13;;;32.73;22.84
54816;BME280;40715;55.752;37.884;2023-04-28T07:24:52;98594.03;;;32.77;23.29
54816;BME280;40715;55.752;37.884;2023-04-28T07:27:19;98583.94;;;32.77;23.36
54816;BME280;40715;55.752;37.884;2023-04-28T07:29:46;98602.22;;;32.77;23.10
54816;BME280;40715;55.752;37.884;2023-04-28T07:32:13;98590.22;;;32.78;23.27
54816;BME280;40715;55.752;37.884;2023-04-28T07:34:40;98596.75;;;32.77;23.03
54816;BME280;40715;55.752;37.884;2023-04-28T07:37:07;98605.75;;;32.77;23.33
54816;BME280;40715;55.752;37.884;2023-04-28T07:39:34;98592.97;;;32.78;22.84
54816;BME280;40715;55.752;37.884;2023-04-28T07:42:01;98600.94;;;32.79;23.22
54816;BME280;40715;55.752;37.884;2023-04-28T07:44:29;98602.81;;;32.79;23.27
54816;BME280;40715;55.752;37.884;2023-04-28T07:46:58;98605.56;;;32.79;23.03
54816;BME280;40715;55.752;37.884;2023-04-28T07:49:29;98608.28;;;32.79;22.89
54816;BME280;40715;55.752;37.884;2023-04-28T07:51:56;98593.63;;;32.80;23.29
54816;BME280;40715;55.752;37.884;2023-04-28T07:54:24;98606.38;;;32.79;22.79
54816;BME280;40715;55.752;37.884;2023-04-28T07:56:51;98605.56;;;32.79;22.67
54816;BME280;40715;55.752;37.884;2023-04-28T07:59:18;98589.19;;;32.79;22.98
54816;BME280;40715;55.752;37.884;2023-04-28T08:01:45;98602.81;;;32.79;22.77
54816;BME280;40715;55.752;37.884;2023-04-28T08:04:12;98596.53;;;32.78;23.27
54816;BME280;40715;55.752;37.884;2023-04-28T08:06:40;98591.72;;;32.80;23.17
54816;BME280;40715;55.752;37.884;2023-04-28T08:09:07;98584.78;;;32.78;22.86
54816;BME280;40715;55.752;37.884;2023-04-28T08:11:34;98594.44;;;32.80;22.96
54816;BME280;40715;55.752;37.884;2023-04-28T08:14:01;98582.91;;;32.78;23.05
54816;BME280;40715;55.752;37.884;2023-04-28T08:16:30;98593.81;;;32.78;23.20
54816;BME280;40715;55.752;37.884;2023-04-28T08:18:57;98585.63;;;32.78;22.54
54816;BME280;40715;55.752;37.884;2023-04-28T08:21:26;98591.09;;;32.78;23.13
54816;BME280;40715;55.752;37.884;2023-04-28T08:23:54;98587.28;;;32.79;22.73
54816;BME280;40715;55.752;37.884;2023-04-28T08:26:21;98583.94;;;32.77;23.04
54816;BME280;40715;55.752;37.884;2023-04-28T08:28:51;98592.97;;;32.78;22.78
54816;BME280;40715;55.752;37.884;2023-04-28T08:31:18;98591.09;;;32.78;23.16
54816;BME280;40715;55.752;37.884;2023-04-28T08:33:45;98583.94;;;32.77;22.98
54816;BME280;40715;55.752;37.884;2023-04-28T08:36:16;98590.63;;;32.75;22.75
54816;BME280;40715;55.752;37.884;2023-04-28T08:38:44;98596.75;;;32.77;22.73
54816;BME280;40715;55.752;37.884;2023-04-28T08:41:15;98585.63;;;32.78;22.77
54816;BME280;40715;55.752;37.884;2023-04-28T08:43:42;98597.38;;;32.79;23.05
54816;BME280;40715;55.752;37.884;2023-04-28T08:46:13;98588.56;;;32.77;22.73
54816;BME280;40715;55.752;37.884;2023-04-28T08:48:42;98575.56;;;32.79;22.83
54816;BME280;40715;55.752;37.884;2023-04-28T08:51:15;98596.13;;;32.81;23.02
54816;BME280;40715;55.752;37.884;2023-04-28T08:53:48;98588.16;;;32.80;22.64
54816;BME280;40715;55.752;37.884;2023-04-28T08:56:20;98583.53;;;32.80;22.66
54816;BME280;40715;55.752;37.884;2023-04-28T08:58:51;98582.69;;;32.80;23.08
54816;BME280;40715;55.752;37.884;2023-04-28T09:01:19;98587.94;;;32.81;23.06
54816;BME280;40715;55.752;37.884;2023-04-28T09:03:47;98588.78;;;32.82;22.77
54816;BME280;40715;55.752;37.884;2023-04-28T09:06:15;98586.47;;;32.79;22.86
54816;BME280;40715;55.752;37.884;2023-04-28T09:08:42;98594.44;;;32.80;23.02
54816;BME280;40715;55.752;37.884;2023-04-28T09:11:10;98589.00;;;32.80;22.94
54816;BME280;40715;55.752;37.884;2023-04-28T09:13:39;98592.56;;;32.81;22.96
54816;BME280;40715;55.752;37.884;2023-04-28T09:16:07;98582.28;;;32.83;22.69
54816;BME280;40715;55.752;37.884;2023-04-28T09:18:34;98593.19;;;32.83;22.89
54816;BME280;40715;55.752;37.884;2023-04-28T09:21:08;98593.81;;;32.85;23.08
54816;BME280;40715;55.752;37.884;2023-04-28T09:23:47;98594.06;;;32.90;23.04
54816;BME280;40715;55.752;37.884;2023-04-28T09:26:15;98588.78;;;32.82;23.07
54816;BME280;40715;55.752;37.884;2023-04-28T09:28:42;98595.09;;;32.82;22.66
54816;BME280;40715;55.752;37.884;2023-04-28T09:31:22;98593.84;;;32.92;22.59
54816;BME280;40715;55.752;37.884;2023-04-28T09:33:59;98585.25;;;32.88;22.63
54816;BME280;40715;55.752;37.884;2023-04-28T09:36:28;98595.50;;;32.86;22.94
54816;BME280;40715;55.752;37.884;2023-04-28T09:38:57;98589.00;;;32.80;22.62
54816;BME280;40715;55.752;37.884;2023-04-28T09:41:43;98594.69;;;32.85;23.06
54816;BME280;40715;55.752;37.884;2023-04-28T09:44:14;98589.66;;;32.82;22.74
54816;BME280;40715;55.752;37.884;2023-04-28T09:46:43;98590.22;;;32.78;22.79
54816;BME280;40715;55.752;37.884;2023-04-28T09:49:11;98590.88;;;32.80;22.94
54816;BME280;40715;55.752;37.884;2023-04-28T09:51:39;98596.13;;;32.81;22.95
54816;BME280;40715;55.752;37.884;2023-04-28T09:54:06;98593.84;;;32.92;22.51
54816;BME280;40715;55.752;37.884;2023-04-28T09:56:34;98584.00;;;32.97;22.84
54816;BME280;40715;55.752;37.884;2023-04-28T09:59:06;98586.53;;;32.99;22.48
54816;BME280;40715;55.752;37.884;2023-04-28T10:01:39;98602.50;;;33.02;22.73
54816;BME280;40715;55.752;37.884;2023-04-28T10:04:07;98611.94;;;32.99;22.82
54816;BME280;40715;55.752;37.884;2023-04-28T10:06:38;98607.31;;;33.00;22.54
54816;BME280;40715;55.752;37.884;2023-04-28T10:09:06;98610.06;;;33.00;22.58
54816;BME280;40715;55.752;37.884;2023-04-28T10:11:33;98617.00;;;33.02;22.75
54816;BME280;40715;55.752;37.884;2023-04-28T10:14:00;98614.47;;;33.01;22.72
54816;BME280;40715;55.752;37.884;2023-04-28T10:16:30;98611.75;;;33.01;22.96
54816;BME280;40715;55.752;37.884;2023-04-28T10:18:58;98568.19;;;32.73;22.75
54816;BME280;40715;55.752;37.884;2023-04-28T10:21:28;98597.88;;;32.96;22.41
54816;BME280;40715;55.752;37.884;2023-04-28T10:23:59;98621.38;;;33.03;22.31
54816;BME280;40715;55.752;37.884;2023-04-28T10:27:05;98614.97;;;33.18;22.68
54816;BME280;40715;55.752;37.884;2023-04-28T10:29:34;98611.13;;;33.06;22.58
54816;BME280;40715;55.752;37.884;2023-04-28T10:34:41;98607.13;;;33.01;22.50
54816;BME280;40715;55.752;37.884;2023-04-28T10:37:09;98606.50;;;32.99;22.78
54816;BME280;40715;55.752;37.884;2023-04-28T10:39:36;98603.34;;;33.02;22.65
54816;BME280;40715;55.752;37.884;2023-04-28T10:42:04;98598.94;;;33.01;22.85
54816;BME280;40715;55.752;37.884;2023-04-28T10:46:59;98597.25;;;33.00;22.74
54816;BME280;40715;55.752;37.884;2023-04-28T10:55:26;98599.63;;;33.17;22.54
54816;BME280;40715;55.752;37.884;2023-04-28T11:00:48;98587.56;;;32.91;22.82
54816;BME280;40715;55.752;37.884;2023-04-28T11:06:22;98602.09;;;33.12;22.43
54816;BME280;40715;55.752;37.884;2023-04-28T11:08:52;98601.88;;;33.00;22.76
54816;BME280;40715;55.752;37.884;2023-04-28T11:11:23;98609.22;;;32.99;22.71
54816;BME280;40715;55.752;37.884;2023-04-28T11:14:38;98606.66;;;32.98;22.97
54816;BME280;40715;55.752;37.884;2023-04-28T11:19:31;98607.94;;;32.95;22.94
54816;BME280;40715;55.752;37.884;2023-04-28T11:24:38;98603.78;;;32.99;22.44
54816;BME280;40715;55.752;37.884;2023-04-28T11:27:05;98617.22;;;33.01;22.92
54816;BME280;40715;55.752;37.884;2023-04-28T11:29:34;98614.84;;;32.98;22.70
54816;BME280;40715;55.752;37.884;2023-04-28T11:32:06;98605.59;;;32.92;22.54
54816;BME280;40715;55.752;37.884;2023-04-28T11:34:34;98610.69;;;33.02;22.82
54816;BME280;40715;55.752;37.884;2023-04-28T11:37:03;98609.63;;;33.03;22.71
54816;BME280;40715;55.752;37.884;2023-04-28T11:39:33;98617.81;;;33.03;22.78
54816;BME280;40715;55.752;37.884;2023-04-28T11:42:02;98616.78;;;33.04;22.75
54816;BME280;40715;55.752;37.884;2023-04-28T11:44:34;98604.84;;;33.05;22.45
54816;BME280;40715;55.752;37.884;2023-04-28T11:47:03;98603.16;;;33.04;22.57
54816;BME280;40715;55.752;37.884;2023-04-28T11:49:41;98606.94;;;33.10;22.92
54816;BME280;40715;55.752;37.884;2023-04-28T11:52:09;98600.22;;;33.06;22.69
54816;BME280;40715;55.752;37.884;2023-04-28T11:54:36;98600.41;;;33.04;22.62
54816;BME280;40715;55.752;37.884;2023-04-28T11:57:04;98599.38;;;33.05;22.58
54816;BME280;40715;55.752;37.884;2023-04-28T11:59:33;98607.56;;;33.05;22.81
54816;BME280;40715;55.752;37.884;2023-04-28T12:02:02;98599.75;;;33.02;22.77
54816;BME280;40715;55.752;37.884;2023-04-28T12:07:09;98602.94;;;33.06;22.55
54816;BME280;40715;55.752;37.884;2023-04-28T12:09:46;98596.25;;;33.08;22.74
54816;BME280;40715;55.752;37.884;2023-04-28T12:12:27;98604.41;;;33.77;21.84
54816;BME280;40715;55.752;37.884;2023-04-28T12:15:06;98597.06;;;33.09;22.57
54816;BME280;40715;55.752;37.884;2023-04-28T12:17:37;98600.84;;;33.01;22.67
54816;BME280;40715;55.752;37.884;2023-04-28T12:20:09;98596.81;;;32.97;22.87
54816;BME280;40715;55.752;37.884;2023-04-28T12:22:45;98605.88;;;33.04;22.79
54816;BME280;40715;55.752;37.884;2023-04-28T12:25:14;98604.41;;;33.01;22.77
54816;BME280;40715;55.752;37.884;2023-04-28T12:28:05;98597.91;;;33.09;22.92
54816;BME280;40715;55.752;37.884;2023-04-28T12:30:35;98589.50;;;33.04;23.02
54816;BME280;40715;55.752;37.884;2023-04-28T12:33:04;98588.22;;;33.00;22.85
54816;BME280;40715;55.752;37.884;2023-04-28T12:35:32;98593.47;;;33.01;22.80
54816;BME280;40715;55.752;37.884;2023-04-28T12:37:59;98589.50;;;33.04;22.83
54816;BME280;40715;55.752;37.884;2023-04-28T12:40:26;98591.38;;;33.03;23.02
54816;BME280;40715;55.752;37.884;2023-04-28T12:42:53;98592.44;;;33.02;22.92
54816;BME280;40715;55.752;37.884;2023-04-28T12:45:21;98592.22;;;33.04;22.83
54816;BME280;40715;55.752;37.884;2023-04-28T12:47:48;98596.66;;;33.05;22.66
54816;BME280;40715;55.752;37.884;2023-04-28T12:50:15;98603.78;;;33.06;23.00
54816;BME280;40715;55.752;37.884;2023-04-28T12:52:42;98601.91;;;33.07;23.01
54816;BME280;40715;55.752;37.884;2023-04-28T12:55:09;98597.47;;;33.06;23.03
54816;BME280;40715;55.752;37.884;2023-04-28T12:57:36;98584.66;;;33.06;22.83
54816;BME280;40715;55.752;37.884;2023-04-28T13:00:06;98589.28;;;33.06;23.01
54816;BME280;40715;55.752;37.884;2023-04-28T13:02:34;98592.84;;;33.06;22.91
54816;BME280;40715;55.752;37.884;2023-04-28T13:05:02;98557.13;;;32.88;23.05
54816;BME280;40715;55.752;37.884;2023-04-28T13:07:30;98587.19;;;33.08;23.14
54816;BME280;40715;55.752;37.884;2023-04-28T13:09:57;98580.47;;;33.03;22.82
54816;BME280;40715;55.752;37.884;2023-04-28T13:12:25;98584.47;;;33.08;22.95
54816;BME280;40715;55.752;37.884;2023-04-28T13:14:52;98581.53;;;33.09;22.87
54816;BME280;40715;55.752;37.884;2023-04-28T13:17:19;98579.25;;;33.13;23.01
54816;BME280;40715;55.752;37.884;2023-04-28T13:19:46;98588.69;;;33.17;23.32
54816;BME280;40715;55.752;37.884;2023-04-28T13:22:13;98588.69;;;33.17;22.90